sensor_id;sensor_type;location;lat;lon;timestamp;P1;durP1;ratioP1;P2;durP2;ratioP2
17606;SDS011;8922;52.240;20.980;2022-10-16T00:00:36;12.10;;;8.83;;
17606;SDS011;8922;52.240;20.980;2022-10-16T00:03:04;11.53;;;8.67;;
17606;SDS011;8922;52.240;20.980;2022-10-16T00:05:31;11.90;;;9.10;;
17606;SDS011;8922;52.240;20.980;2022-10-16T00:07:59;10.63;;;7.83;;
17606;SDS011;8922;52.240;20.980;2022-10-16T00:10:27;12.67;;;9.10;;
17606;SDS011;8922;52.240;20.980;2022-10-16T00:12:56;9.80;;;8.53;;
17606;SDS011;8922;52.240;20.980;2022-10-16T00:15:23;11.50;;;8.97;;
17606;SDS011;8922;52.240;20.980;2022-10-16T00:17:49;9.80;;;8.07;;
17606;SDS011;8922;52.240;20.980;2022-10-16T00:20:16;10.97;;;7.53;;
17606;SDS011;8922;52.240;20.980;2022-10-16T00:22:43;10.13;;;7.93;;
17606;SDS011;8922;52.240;20.980;2022-10-16T00:25:10;10.57;;;8.23;;
17606;SDS011;8922;52.240;20.980;2022-10-16T00:27:36;9.93;;;8.23;;
17606;SDS011;8922;52.240;20.980;2022-10-16T00:30:05;10.97;;;8.70;;
17606;SDS011;8922;52.240;20.980;2022-10-16T00:32:34;12.23;;;8.67;;
17606;SDS011;8922;52.240;20.980;2022-10-16T00:35:00;13.07;;;9.00;;
17606;SDS011;8922;52.240;20.980;2022-10-16T00:37:28;12.47;;;9.03;;
17606;SDS011;8922;52.240;20.980;2022-10-16T00:39:55;10.80;;;9.67;;
17606;SDS011;8922;52.240;20.980;2022-10-16T00:42:22;11.93;;;9.13;;
17606;SDS011;8922;52.240;20.980;2022-10-16T00:44:50;13.10;;;8.93;;
17606;SDS011;8922;52.240;20.980;2022-10-16T00:47:21;11.80;;;9.13;;
17606;SDS011;8922;52.240;20.980;2022-10-16T00:49:53;13.67;;;10.07;;
17606;SDS011;8922;52.240;20.980;2022-10-16T00:52:24;13.67;;;9.90;;
17606;SDS011;8922;52.240;20.980;2022-10-16T00:54:51;16.13;;;10.43;;
17606;SDS011;8922;52.240;20.980;2022-10-16T00:57:19;12.47;;;9.90;;
17606;SDS011;8922;52.240;20.980;2022-10-16T00:59:46;14.77;;;9.97;;
17606;SDS011;8922;52.240;20.980;2022-10-16T01:02:14;15.00;;;10.97;;
17606;SDS011;8922;52.240;20.980;2022-10-16T01:04:43;13.50;;;10.60;;
17606;SDS011;8922;52.240;20.980;2022-10-16T01:07:12;12.60;;;10.57;;
17606;SDS011;8922;52.240;20.980;2022-10-16T01:09:51;14.13;;;10.20;;
17606;SDS011;8922;52.240;20.980;2022-10-16T01:12:29;11.90;;;9.93;;
17606;SDS011;8922;52.240;20.980;2022-10-16T01:15:04;15.80;;;11.60;;
17606;SDS011;8922;52.240;20.980;2022-10-16T01:17:38;16.83;;;10.67;;
17606;SDS011;8922;52.240;20.980;2022-10-16T01:20:13;16.13;;;10.33;;
17606;SDS011;8922;52.240;20.980;2022-10-16T01:22:50;15.20;;;11.50;;
17606;SDS011;8922;52.240;20.980;2022-10-16T01:25:30;13.27;;;10.00;;
17606;SDS011;8922;52.240;20.980;2022-10-16T01:28:07;15.77;;;10.70;;
17606;SDS011;8922;52.240;20.980;2022-10-16T01:30:37;11.77;;;10.57;;
17606;SDS011;8922;52.240;20.980;2022-10-16T01:33:08;14.60;;;10.43;;
17606;SDS011;8922;52.240;20.980;2022-10-16T01:35:41;16.43;;;11.33;;
17606;SDS011;8922;52.240;20.980;2022-10-16T01:38:12;14.70;;;10.10;;
17606;SDS011;8922;52.240;20.980;2022-10-16T01:40:44;14.40;;;11.30;;
17606;SDS011;8922;52.240;20.980;2022-10-16T01:43:15;12.67;;;10.27;;
17606;SDS011;8922;52.240;20.980;2022-10-16T01:45:45;14.43;;;11.10;;
17606;SDS011;8922;52.240;20.980;2022-10-16T01:48:13;23.13;;;10.77;;
17606;SDS011;8922;52.240;20.980;2022-10-16T01:50:44;14.23;;;11.23;;
17606;SDS011;8922;52.240;20.980;2022-10-16T01:53:18;13.47;;;10.83;;
17606;SDS011;8922;52.240;20.980;2022-10-16T01:55:46;13.97;;;11.43;;
17606;SDS011;8922;52.240;20.980;2022-10-16T01:58:16;17.50;;;11.70;;
17606;SDS011;8922;52.240;20.980;2022-10-16T02:00:43;15.27;;;11.50;;
17606;SDS011;8922;52.240;20.980;2022-10-16T02:03:13;14.20;;;10.57;;
17606;SDS011;8922;52.240;20.980;2022-10-16T02:05:44;15.47;;;11.60;;
17606;SDS011;8922;52.240;20.980;2022-10-16T02:08:12;16.70;;;12.33;;
17606;SDS011;8922;52.240;20.980;2022-10-16T02:10:40;16.07;;;11.03;;
17606;SDS011;8922;52.240;20.980;2022-10-16T02:13:08;13.63;;;12.00;;
17606;SDS011;8922;52.240;20.980;2022-10-16T02:15:39;17.23;;;11.07;;
17606;SDS011;8922;52.240;20.980;2022-10-16T02:18:06;15.23;;;10.83;;
17606;SDS011;8922;52.240;20.980;2022-10-16T02:20:36;14.37;;;11.97;;
17606;SDS011;8922;52.240;20.980;2022-10-16T02:23:09;16.70;;;11.53;;
17606;SDS011;8922;52.240;20.980;2022-10-16T02:25:41;15.87;;;11.67;;
17606;SDS011;8922;52.240;20.980;2022-10-16T02:28:12;15.97;;;11.57;;
17606;SDS011;8922;52.240;20.980;2022-10-16T02:30:45;14.77;;;11.63;;
17606;SDS011;8922;52.240;20.980;2022-10-16T02:33:15;15.07;;;11.17;;
17606;SDS011;8922;52.240;20.980;2022-10-16T02:35:44;15.43;;;11.50;;
17606;SDS011;8922;52.240;20.980;2022-10-16T02:38:13;14.90;;;11.87;;
17606;SDS011;8922;52.240;20.980;2022-10-16T02:40:41;14.23;;;11.73;;
17606;SDS011;8922;52.240;20.980;2022-10-16T02:43:08;16.50;;;11.47;;
17606;SDS011;8922;52.240;20.980;2022-10-16T02:45:36;15.00;;;11.67;;
17606;SDS011;8922;52.240;20.980;2022-10-16T02:48:04;15.60;;;11.43;;
17606;SDS011;8922;52.240;20.980;2022-10-16T02:50:31;14.80;;;12.40;;
17606;SDS011;8922;52.240;20.980;2022-10-16T02:52:58;17.57;;;12.10;;
17606;SDS011;8922;52.240;20.980;2022-10-16T02:55:25;16.83;;;12.33;;
17606;SDS011;8922;52.240;20.980;2022-10-16T02:57:52;16.47;;;12.30;;
17606;SDS011;8922;52.240;20.980;2022-10-16T03:00:20;15.63;;;11.90;;
17606;SDS011;8922;52.240;20.980;2022-10-16T03:02:47;18.17;;;12.43;;
17606;SDS011;8922;52.240;20.980;2022-10-16T03:05:15;16.13;;;11.70;;
17606;SDS011;8922;52.240;20.980;2022-10-16T03:07:42;16.07;;;11.90;;
17606;SDS011;8922;52.240;20.980;2022-10-16T03:10:09;16.80;;;13.00;;
17606;SDS011;8922;52.240;20.980;2022-10-16T03:12:35;15.53;;;12.83;;
17606;SDS011;8922;52.240;20.980;2022-10-16T03:15:02;15.10;;;12.27;;
17606;SDS011;8922;52.240;20.980;2022-10-16T03:17:31;20.23;;;12.27;;
17606;SDS011;8922;52.240;20.980;2022-10-16T03:19:58;16.67;;;12.10;;
17606;SDS011;8922;52.240;20.980;2022-10-16T03:22:26;15.77;;;12.43;;
17606;SDS011;8922;52.240;20.980;2022-10-16T03:24:53;16.23;;;11.37;;
17606;SDS011;8922;52.240;20.980;2022-10-16T03:27:20;16.07;;;12.17;;
17606;SDS011;8922;52.240;20.980;2022-10-16T03:29:46;16.17;;;11.33;;
17606;SDS011;8922;52.240;20.980;2022-10-16T03:32:13;16.73;;;12.27;;
17606;SDS011;8922;52.240;20.980;2022-10-16T03:34:40;14.87;;;11.57;;
17606;SDS011;8922;52.240;20.980;2022-10-16T03:37:07;16.43;;;12.13;;
17606;SDS011;8922;52.240;20.980;2022-10-16T03:39:35;14.03;;;11.63;;
17606;SDS011;8922;52.240;20.980;2022-10-16T03:42:02;17.67;;;11.23;;
17606;SDS011;8922;52.240;20.980;2022-10-16T03:44:28;15.40;;;11.63;;
17606;SDS011;8922;52.240;20.980;2022-10-16T03:46:55;15.63;;;11.73;;
17606;SDS011;8922;52.240;20.980;2022-10-16T03:49:22;15.20;;;11.33;;
17606;SDS011;8922;52.240;20.980;2022-10-16T03:51:49;15.37;;;11.27;;
17606;SDS011;8922;52.240;20.980;2022-10-16T03:54:15;14.77;;;11.77;;
17606;SDS011;8922;52.240;20.980;2022-10-16T03:56:44;15.27;;;10.93;;
17606;SDS011;8922;52.240;20.980;2022-10-16T03:59:10;18.80;;;11.63;;
17606;SDS011;8922;52.240;20.980;2022-10-16T04:01:37;22.70;;;12.57;;
17606;SDS011;8922;52.240;20.980;2022-10-16T04:04:04;18.20;;;10.93;;
17606;SDS011;8922;52.240;20.980;2022-10-16T04:06:31;14.03;;;11.23;;
17606;SDS011;8922;52.240;20.980;2022-10-16T04:08:58;15.37;;;12.30;;
17606;SDS011;8922;52.240;20.980;2022-10-16T04:11:24;16.77;;;11.67;;
17606;SDS011;8922;52.240;20.980;2022-10-16T04:13:52;14.27;;;11.40;;
17606;SDS011;8922;52.240;20.980;2022-10-16T04:16:19;14.67;;;11.27;;
17606;SDS011;8922;52.240;20.980;2022-10-16T04:18:46;14.20;;;11.43;;
17606;SDS011;8922;52.240;20.980;2022-10-16T04:21:13;14.73;;;11.60;;
17606;SDS011;8922;52.240;20.980;2022-10-16T04:23:40;15.57;;;11.10;;
17606;SDS011;8922;52.240;20.980;2022-10-16T04:26:08;16.23;;;11.37;;
17606;SDS011;8922;52.240;20.980;2022-10-16T04:28:35;15.33;;;10.77;;
17606;SDS011;8922;52.240;20.980;2022-10-16T04:31:04;15.30;;;11.80;;
17606;SDS011;8922;52.240;20.980;2022-10-16T04:33:32;15.03;;;11.20;;
17606;SDS011;8922;52.240;20.980;2022-10-16T04:35:59;17.27;;;11.70;;
17606;SDS011;8922;52.240;20.980;2022-10-16T04:38:27;14.80;;;11.60;;
17606;SDS011;8922;52.240;20.980;2022-10-16T04:40:53;13.33;;;10.03;;
17606;SDS011;8922;52.240;20.980;2022-10-16T04:43:20;16.07;;;12.00;;
17606;SDS011;8922;52.240;20.980;2022-10-16T04:45:47;15.57;;;11.73;;
17606;SDS011;8922;52.240;20.980;2022-10-16T04:48:17;17.77;;;11.57;;
17606;SDS011;8922;52.240;20.980;2022-10-16T04:50:44;16.53;;;11.97;;
17606;SDS011;8922;52.240;20.980;2022-10-16T04:53:11;16.43;;;11.90;;
17606;SDS011;8922;52.240;20.980;2022-10-16T04:55:38;13.27;;;10.60;;
17606;SDS011;8922;52.240;20.980;2022-10-16T04:58:05;14.63;;;11.07;;
17606;SDS011;8922;52.240;20.980;2022-10-16T05:00:32;15.53;;;11.73;;
17606;SDS011;8922;52.240;20.980;2022-10-16T05:02:59;14.50;;;11.30;;
17606;SDS011;8922;52.240;20.980;2022-10-16T05:05:27;14.37;;;11.20;;
17606;SDS011;8922;52.240;20.980;2022-10-16T05:07:54;15.27;;;11.30;;
17606;SDS011;8922;52.240;20.980;2022-10-16T05:10:21;14.73;;;11.90;;
17606;SDS011;8922;52.240;20.980;2022-10-16T05:12:48;16.33;;;11.50;;
17606;SDS011;8922;52.240;20.980;2022-10-16T05:15:16;13.57;;;11.13;;
17606;SDS011;8922;52.240;20.980;2022-10-16T05:17:43;14.90;;;11.53;;
17606;SDS011;8922;52.240;20.980;2022-10-16T05:20:10;14.70;;;11.47;;
17606;SDS011;8922;52.240;20.980;2022-10-16T05:22:39;17.03;;;11.03;;
17606;SDS011;8922;52.240;20.980;2022-10-16T05:25:06;16.47;;;11.10;;
17606;SDS011;8922;52.240;20.980;2022-10-16T05:27:33;16.83;;;12.40;;
17606;SDS011;8922;52.240;20.980;2022-10-16T05:29:59;13.03;;;10.70;;
17606;SDS011;8922;52.240;20.980;2022-10-16T05:32:26;14.70;;;11.30;;
17606;SDS011;8922;52.240;20.980;2022-10-16T05:34:53;16.67;;;11.97;;
17606;SDS011;8922;52.240;20.980;2022-10-16T05:37:20;15.37;;;11.93;;
17606;SDS011;8922;52.240;20.980;2022-10-16T05:39:48;14.63;;;11.33;;
17606;SDS011;8922;52.240;20.980;2022-10-16T05:42:15;12.40;;;10.77;;
17606;SDS011;8922;52.240;20.980;2022-10-16T05:44:41;13.30;;;11.23;;
17606;SDS011;8922;52.240;20.980;2022-10-16T05:47:08;15.80;;;11.13;;
17606;SDS011;8922;52.240;20.980;2022-10-16T05:49:35;16.63;;;10.97;;
17606;SDS011;8922;52.240;20.980;2022-10-16T05:52:02;14.73;;;11.47;;
17606;SDS011;8922;52.240;20.980;2022-10-16T05:54:29;13.80;;;10.83;;
17606;SDS011;8922;52.240;20.980;2022-10-16T05:56:57;14.57;;;11.63;;
17606;SDS011;8922;52.240;20.980;2022-10-16T05:59:24;14.87;;;11.63;;
17606;SDS011;8922;52.240;20.980;2022-10-16T06:01:51;12.07;;;10.33;;
17606;SDS011;8922;52.240;20.980;2022-10-16T06:04:18;17.67;;;12.13;;
17606;SDS011;8922;52.240;20.980;2022-10-16T06:06:45;12.37;;;10.80;;
17606;SDS011;8922;52.240;20.980;2022-10-16T06:09:12;15.00;;;11.43;;
17606;SDS011;8922;52.240;20.980;2022-10-16T06:11:38;14.57;;;10.40;;
17606;SDS011;8922;52.240;20.980;2022-10-16T06:14:07;14.97;;;11.03;;
17606;SDS011;8922;52.240;20.980;2022-10-16T06:16:35;16.23;;;11.17;;
17606;SDS011;8922;52.240;20.980;2022-10-16T06:19:03;13.97;;;11.10;;
17606;SDS011;8922;52.240;20.980;2022-10-16T06:21:31;14.97;;;11.07;;
17606;SDS011;8922;52.240;20.980;2022-10-16T06:23:58;13.90;;;10.80;;
17606;SDS011;8922;52.240;20.980;2022-10-16T06:26:25;15.73;;;11.33;;
17606;SDS011;8922;52.240;20.980;2022-10-16T06:28:53;21.83;;;11.13;;
17606;SDS011;8922;52.240;20.980;2022-10-16T06:31:23;14.03;;;11.13;;
17606;SDS011;8922;52.240;20.980;2022-10-16T06:33:54;13.60;;;11.43;;
17606;SDS011;8922;52.240;20.980;2022-10-16T06:36:21;12.53;;;10.53;;
17606;SDS011;8922;52.240;20.980;2022-10-16T06:38:48;13.50;;;10.70;;
17606;SDS011;8922;52.240;20.980;2022-10-16T06:41:15;14.27;;;11.37;;
17606;SDS011;8922;52.240;20.980;2022-10-16T06:43:43;15.37;;;11.33;;
17606;SDS011;8922;52.240;20.980;2022-10-16T06:46:11;15.90;;;10.90;;
17606;SDS011;8922;52.240;20.980;2022-10-16T06:48:41;15.57;;;10.47;;
17606;SDS011;8922;52.240;20.980;2022-10-16T06:51:08;12.90;;;11.00;;
17606;SDS011;8922;52.240;20.980;2022-10-16T06:53:38;15.43;;;10.23;;
17606;SDS011;8922;52.240;20.980;2022-10-16T06:56:07;17.67;;;11.10;;
17606;SDS011;8922;52.240;20.980;2022-10-16T06:58:34;12.13;;;9.97;;
17606;SDS011;8922;52.240;20.980;2022-10-16T07:01:01;15.53;;;11.27;;
17606;SDS011;8922;52.240;20.980;2022-10-16T07:03:28;13.77;;;10.65;;
17606;SDS011;8922;52.240;20.980;2022-10-16T07:06:00;17.47;;;10.20;;
17606;SDS011;8922;52.240;20.980;2022-10-16T07:08:30;15.68;;;10.30;;
17606;SDS011;8922;52.240;20.980;2022-10-16T07:10:58;14.57;;;10.82;;
17606;SDS011;8922;52.240;20.980;2022-10-16T07:13:25;12.30;;;9.30;;
17606;SDS011;8922;52.240;20.980;2022-10-16T07:15:52;13.52;;;10.20;;
17606;SDS011;8922;52.240;20.980;2022-10-16T07:18:19;13.50;;;10.05;;
17606;SDS011;8922;52.240;20.980;2022-10-16T07:20:46;14.77;;;10.57;;
17606;SDS011;8922;52.240;20.980;2022-10-16T07:23:14;14.23;;;10.98;;
17606;SDS011;8922;52.240;20.980;2022-10-16T07:25:41;13.10;;;10.27;;
17606;SDS011;8922;52.240;20.980;2022-10-16T07:28:08;13.97;;;10.27;;
17606;SDS011;8922;52.240;20.980;2022-10-16T07:30:35;12.30;;;10.50;;
17606;SDS011;8922;52.240;20.980;2022-10-16T07:33:03;14.57;;;10.73;;
17606;SDS011;8922;52.240;20.980;2022-10-16T07:35:30;14.17;;;10.47;;
17606;SDS011;8922;52.240;20.980;2022-10-16T07:37:57;15.73;;;11.23;;
17606;SDS011;8922;52.240;20.980;2022-10-16T07:40:25;12.67;;;10.77;;
17606;SDS011;8922;52.240;20.980;2022-10-16T07:42:53;15.27;;;10.53;;
17606;SDS011;8922;52.240;20.980;2022-10-16T07:45:19;13.43;;;10.13;;
17606;SDS011;8922;52.240;20.980;2022-10-16T07:47:46;13.97;;;10.33;;
17606;SDS011;8922;52.240;20.980;2022-10-16T07:50:13;16.45;;;10.88;;
17606;SDS011;8922;52.240;20.980;2022-10-16T07:52:40;13.90;;;9.82;;
17606;SDS011;8922;52.240;20.980;2022-10-16T07:55:07;12.73;;;9.63;;
17606;SDS011;8922;52.240;20.980;2022-10-16T07:57:36;13.10;;;10.30;;
17606;SDS011;8922;52.240;20.980;2022-10-16T08:00:02;10.98;;;9.63;;
17606;SDS011;8922;52.240;20.980;2022-10-16T08:02:31;12.18;;;10.02;;
17606;SDS011;8922;52.240;20.980;2022-10-16T08:04:59;12.40;;;10.55;;
17606;SDS011;8922;52.240;20.980;2022-10-16T08:07:26;14.27;;;9.73;;
17606;SDS011;8922;52.240;20.980;2022-10-16T08:09:55;11.63;;;9.85;;
17606;SDS011;8922;52.240;20.980;2022-10-16T08:12:23;14.07;;;9.85;;
17606;SDS011;8922;52.240;20.980;2022-10-16T08:14:51;10.75;;;9.25;;
17606;SDS011;8922;52.240;20.980;2022-10-16T08:17:18;12.90;;;9.10;;
17606;SDS011;8922;52.240;20.980;2022-10-16T08:19:45;13.35;;;9.23;;
17606;SDS011;8922;52.240;20.980;2022-10-16T08:22:12;13.02;;;9.77;;
17606;SDS011;8922;52.240;20.980;2022-10-16T08:24:39;11.20;;;8.77;;
17606;SDS011;8922;52.240;20.980;2022-10-16T08:27:06;13.30;;;10.20;;
17606;SDS011;8922;52.240;20.980;2022-10-16T08:29:34;13.15;;;9.35;;
17606;SDS011;8922;52.240;20.980;2022-10-16T08:32:03;11.07;;;9.05;;
17606;SDS011;8922;52.240;20.980;2022-10-16T08:34:30;12.55;;;9.13;;
17606;SDS011;8922;52.240;20.980;2022-10-16T08:36:56;11.45;;;8.73;;
17606;SDS011;8922;52.240;20.980;2022-10-16T08:39:23;10.43;;;9.18;;
17606;SDS011;8922;52.240;20.980;2022-10-16T08:41:55;13.85;;;8.40;;
17606;SDS011;8922;52.240;20.980;2022-10-16T08:47:44;10.75;;;8.00;;
17606;SDS011;8922;52.240;20.980;2022-10-16T08:50:17;9.20;;;8.07;;
17606;SDS011;8922;52.240;20.980;2022-10-16T08:52:49;10.05;;;8.43;;
17606;SDS011;8922;52.240;20.980;2022-10-16T08:55:28;10.23;;;7.72;;
17606;SDS011;8922;52.240;20.980;2022-10-16T08:57:58;9.63;;;7.65;;
17606;SDS011;8922;52.240;20.980;2022-10-16T09:00:25;8.68;;;7.65;;
17606;SDS011;8922;52.240;20.980;2022-10-16T09:02:55;8.77;;;7.82;;
17606;SDS011;8922;52.240;20.980;2022-10-16T09:05:36;11.07;;;7.93;;
17606;SDS011;8922;52.240;20.980;2022-10-16T09:08:27;12.85;;;7.20;;
17606;SDS011;8922;52.240;20.980;2022-10-16T09:11:01;8.43;;;7.63;;
17606;SDS011;8922;52.240;20.980;2022-10-16T09:13:35;8.93;;;7.72;;
17606;SDS011;8922;52.240;20.980;2022-10-16T09:16:14;8.48;;;7.28;;
17606;SDS011;8922;52.240;20.980;2022-10-16T09:18:48;10.48;;;8.55;;
17606;SDS011;8922;52.240;20.980;2022-10-16T09:21:25;10.60;;;7.45;;
17606;SDS011;8922;52.240;20.980;2022-10-16T09:23:56;8.02;;;7.18;;
17606;SDS011;8922;52.240;20.980;2022-10-16T09:26:25;8.52;;;6.72;;
17606;SDS011;8922;52.240;20.980;2022-10-16T09:28:52;8.95;;;7.68;;
17606;SDS011;8922;52.240;20.980;2022-10-16T09:31:20;8.30;;;7.15;;
17606;SDS011;8922;52.240;20.980;2022-10-16T09:33:50;8.23;;;7.40;;
17606;SDS011;8922;52.240;20.980;2022-10-16T09:36:21;10.68;;;7.57;;
17606;SDS011;8922;52.240;20.980;2022-10-16T09:39:01;9.48;;;7.07;;
17606;SDS011;8922;52.240;20.980;2022-10-16T09:41:30;11.57;;;7.68;;
17606;SDS011;8922;52.240;20.980;2022-10-16T09:44:01;8.27;;;6.82;;
17606;SDS011;8922;52.240;20.980;2022-10-16T09:46:30;9.43;;;7.45;;
17606;SDS011;8922;52.240;20.980;2022-10-16T09:49:00;10.00;;;7.57;;
17606;SDS011;8922;52.240;20.980;2022-10-16T09:51:28;8.32;;;7.22;;
17606;SDS011;8922;52.240;20.980;2022-10-16T09:53:58;8.48;;;7.50;;
17606;SDS011;8922;52.240;20.980;2022-10-16T09:56:26;9.85;;;7.38;;
17606;SDS011;8922;52.240;20.980;2022-10-16T09:58:55;9.60;;;7.72;;
17606;SDS011;8922;52.240;20.980;2022-10-16T10:01:24;7.75;;;6.97;;
17606;SDS011;8922;52.240;20.980;2022-10-16T10:04:05;9.25;;;6.85;;
17606;SDS011;8922;52.240;20.980;2022-10-16T10:06:33;7.72;;;6.93;;
17606;SDS011;8922;52.240;20.980;2022-10-16T10:09:06;8.85;;;6.93;;
17606;SDS011;8922;52.240;20.980;2022-10-16T10:11:44;8.32;;;6.93;;
17606;SDS011;8922;52.240;20.980;2022-10-16T10:14:17;10.10;;;7.00;;
17606;SDS011;8922;52.240;20.980;2022-10-16T10:16:49;11.40;;;7.15;;
17606;SDS011;8922;52.240;20.980;2022-10-16T10:19:18;9.98;;;7.63;;
17606;SDS011;8922;52.240;20.980;2022-10-16T10:21:47;11.38;;;8.23;;
17606;SDS011;8922;52.240;20.980;2022-10-16T10:24:15;8.52;;;7.03;;
17606;SDS011;8922;52.240;20.980;2022-10-16T10:26:46;8.35;;;6.53;;
17606;SDS011;8922;52.240;20.980;2022-10-16T10:29:19;6.72;;;6.00;;
17606;SDS011;8922;52.240;20.980;2022-10-16T10:32:01;7.53;;;6.00;;
17606;SDS011;8922;52.240;20.980;2022-10-16T10:34:40;13.45;;;11.32;;
17606;SDS011;8922;52.240;20.980;2022-10-16T10:37:22;10.30;;;8.38;;
17606;SDS011;8922;52.240;20.980;2022-10-16T10:40:02;7.68;;;6.95;;
17606;SDS011;8922;52.240;20.980;2022-10-16T10:42:39;7.03;;;6.32;;
17606;SDS011;8922;52.240;20.980;2022-10-16T10:45:16;14.68;;;7.53;;
17606;SDS011;8922;52.240;20.980;2022-10-16T10:47:47;10.10;;;7.38;;
17606;SDS011;8922;52.240;20.980;2022-10-16T10:50:29;9.30;;;7.20;;
17606;SDS011;8922;52.240;20.980;2022-10-16T10:52:59;7.80;;;7.00;;
17606;SDS011;8922;52.240;20.980;2022-10-16T10:55:39;8.43;;;6.90;;
17606;SDS011;8922;52.240;20.980;2022-10-16T10:58:35;7.88;;;7.07;;
17606;SDS011;8922;52.240;20.980;2022-10-16T11:01:32;9.52;;;7.30;;
17606;SDS011;8922;52.240;20.980;2022-10-16T11:04:14;10.02;;;7.35;;
17606;SDS011;8922;52.240;20.980;2022-10-16T11:06:57;8.27;;;6.82;;
17606;SDS011;8922;52.240;20.980;2022-10-16T11:09:27;8.35;;;7.45;;
17606;SDS011;8922;52.240;20.980;2022-10-16T11:12:00;8.98;;;7.35;;
17606;SDS011;8922;52.240;20.980;2022-10-16T11:14:33;9.27;;;7.32;;
17606;SDS011;8922;52.240;20.980;2022-10-16T11:17:06;7.40;;;6.60;;
17606;SDS011;8922;52.240;20.980;2022-10-16T11:19:39;9.70;;;6.93;;
17606;SDS011;8922;52.240;20.980;2022-10-16T11:22:11;8.27;;;7.28;;
17606;SDS011;8922;52.240;20.980;2022-10-16T11:24:45;10.05;;;7.07;;
17606;SDS011;8922;52.240;20.980;2022-10-16T11:27:17;11.20;;;7.38;;
17606;SDS011;8922;52.240;20.980;2022-10-16T11:29:49;14.10;;;8.32;;
17606;SDS011;8922;52.240;20.980;2022-10-16T11:32:31;9.07;;;7.10;;
17606;SDS011;8922;52.240;20.980;2022-10-16T11:35:02;8.85;;;7.13;;
17606;SDS011;8922;52.240;20.980;2022-10-16T11:37:38;8.45;;;6.43;;
17606;SDS011;8922;52.240;20.980;2022-10-16T11:40:17;9.00;;;6.78;;
17606;SDS011;8922;52.240;20.980;2022-10-16T11:42:51;7.97;;;6.20;;
17606;SDS011;8922;52.240;20.980;2022-10-16T11:45:26;7.40;;;6.25;;
17606;SDS011;8922;52.240;20.980;2022-10-16T11:48:00;7.45;;;6.68;;
17606;SDS011;8922;52.240;20.980;2022-10-16T11:50:31;7.53;;;6.25;;
17606;SDS011;8922;52.240;20.980;2022-10-16T11:53:04;8.95;;;6.22;;
17606;SDS011;8922;52.240;20.980;2022-10-16T11:55:40;8.30;;;6.00;;
17606;SDS011;8922;52.240;20.980;2022-10-16T11:58:09;7.93;;;6.55;;
17606;SDS011;8922;52.240;20.980;2022-10-16T12:00:43;8.20;;;5.82;;
17606;SDS011;8922;52.240;20.980;2022-10-16T12:03:17;8.15;;;5.72;;
17606;SDS011;8922;52.240;20.980;2022-10-16T12:05:51;5.90;;;5.30;;
17606;SDS011;8922;52.240;20.980;2022-10-16T12:08:24;6.85;;;6.22;;
17606;SDS011;8922;52.240;20.980;2022-10-16T12:10:51;7.40;;;6.68;;
17606;SDS011;8922;52.240;20.980;2022-10-16T12:13:30;7.32;;;6.45;;
17606;SDS011;8922;52.240;20.980;2022-10-16T12:16:05;7.53;;;6.63;;
17606;SDS011;8922;52.240;20.980;2022-10-16T12:18:45;7.65;;;6.70;;
17606;SDS011;8922;52.240;20.980;2022-10-16T12:21:14;6.85;;;6.03;;
17606;SDS011;8922;52.240;20.980;2022-10-16T12:23:48;8.52;;;6.90;;
17606;SDS011;8922;52.240;20.980;2022-10-16T12:26:23;8.18;;;5.97;;
17606;SDS011;8922;52.240;20.980;2022-10-16T12:28:51;7.70;;;6.32;;
17606;SDS011;8922;52.240;20.980;2022-10-16T12:31:19;10.85;;;6.75;;
17606;SDS011;8922;52.240;20.980;2022-10-16T12:33:53;7.90;;;5.93;;
17606;SDS011;8922;52.240;20.980;2022-10-16T12:36:28;10.90;;;6.82;;
17606;SDS011;8922;52.240;20.980;2022-10-16T12:38:58;8.98;;;6.30;;
17606;SDS011;8922;52.240;20.980;2022-10-16T12:41:26;8.45;;;5.90;;
17606;SDS011;8922;52.240;20.980;2022-10-16T12:43:55;6.95;;;6.00;;
17606;SDS011;8922;52.240;20.980;2022-10-16T12:46:35;8.80;;;5.95;;
17606;SDS011;8922;52.240;20.980;2022-10-16T12:49:06;7.30;;;6.00;;
17606;SDS011;8922;52.240;20.980;2022-10-16T12:51:47;11.00;;;6.63;;
17606;SDS011;8922;52.240;20.980;2022-10-16T12:54:15;7.47;;;6.43;;
17606;SDS011;8922;52.240;20.980;2022-10-16T12:56:47;7.85;;;6.95;;
17606;SDS011;8922;52.240;20.980;2022-10-16T12:59:24;8.32;;;6.60;;
17606;SDS011;8922;52.240;20.980;2022-10-16T13:02:05;9.50;;;7.18;;
17606;SDS011;8922;52.240;20.980;2022-10-16T13:04:55;8.57;;;7.35;;
17606;SDS011;8922;52.240;20.980;2022-10-16T13:07:51;8.43;;;7.53;;
17606;SDS011;8922;52.240;20.980;2022-10-16T13:10:28;9.88;;;7.30;;
17606;SDS011;8922;52.240;20.980;2022-10-16T13:13:05;10.35;;;7.05;;
17606;SDS011;8922;52.240;20.980;2022-10-16T13:15:57;9.23;;;7.30;;
17606;SDS011;8922;52.240;20.980;2022-10-16T13:18:34;11.02;;;6.63;;
17606;SDS011;8922;52.240;20.980;2022-10-16T13:21:18;7.75;;;6.95;;
17606;SDS011;8922;52.240;20.980;2022-10-16T13:23:56;9.85;;;6.47;;
17606;SDS011;8922;52.240;20.980;2022-10-16T13:26:31;10.00;;;6.55;;
17606;SDS011;8922;52.240;20.980;2022-10-16T13:29:05;9.70;;;6.60;;
17606;SDS011;8922;52.240;20.980;2022-10-16T13:31:32;7.55;;;6.68;;
17606;SDS011;8922;52.240;20.980;2022-10-16T13:33:59;9.15;;;6.05;;
17606;SDS011;8922;52.240;20.980;2022-10-16T13:36:27;10.10;;;6.60;;
17606;SDS011;8922;52.240;20.980;2022-10-16T13:39:00;9.73;;;7.25;;
17606;SDS011;8922;52.240;20.980;2022-10-16T13:41:34;8.35;;;6.47;;
17606;SDS011;8922;52.240;20.980;2022-10-16T13:44:01;11.68;;;7.15;;
17606;SDS011;8922;52.240;20.980;2022-10-16T13:46:28;9.35;;;7.38;;
17606;SDS011;8922;52.240;20.980;2022-10-16T13:48:59;8.20;;;5.90;;
17606;SDS011;8922;52.240;20.980;2022-10-16T13:51:27;10.38;;;6.95;;
17606;SDS011;8922;52.240;20.980;2022-10-16T13:53:55;13.25;;;7.47;;
17606;SDS011;8922;52.240;20.980;2022-10-16T13:56:24;8.40;;;6.45;;
17606;SDS011;8922;52.240;20.980;2022-10-16T13:59:01;8.35;;;6.20;;
17606;SDS011;8922;52.240;20.980;2022-10-16T14:01:29;11.10;;;7.30;;
17606;SDS011;8922;52.240;20.980;2022-10-16T14:04:02;11.52;;;6.15;;
17606;SDS011;8922;52.240;20.980;2022-10-16T14:06:30;7.32;;;6.20;;
17606;SDS011;8922;52.240;20.980;2022-10-16T14:08:59;11.68;;;6.50;;
17606;SDS011;8922;52.240;20.980;2022-10-16T14:11:27;6.68;;;6.00;;
17606;SDS011;8922;52.240;20.980;2022-10-16T14:13:55;6.88;;;6.15;;
17606;SDS011;8922;52.240;20.980;2022-10-16T14:16:24;8.45;;;6.78;;
17606;SDS011;8922;52.240;20.980;2022-10-16T14:18:55;6.72;;;6.07;;
17606;SDS011;8922;52.240;20.980;2022-10-16T14:21:24;7.00;;;6.28;;
17606;SDS011;8922;52.240;20.980;2022-10-16T14:23:52;11.80;;;6.10;;
17606;SDS011;8922;52.240;20.980;2022-10-16T14:26:20;6.78;;;5.90;;
17606;SDS011;8922;52.240;20.980;2022-10-16T14:28:49;8.73;;;6.63;;
17606;SDS011;8922;52.240;20.980;2022-10-16T14:31:30;9.07;;;6.20;;
17606;SDS011;8922;52.240;20.980;2022-10-16T14:33:58;8.40;;;6.78;;
17606;SDS011;8922;52.240;20.980;2022-10-16T14:36:26;7.88;;;7.05;;
17606;SDS011;8922;52.240;20.980;2022-10-16T14:38:56;12.02;;;7.53;;
17606;SDS011;8922;52.240;20.980;2022-10-16T14:41:26;10.00;;;7.18;;
17606;SDS011;8922;52.240;20.980;2022-10-16T14:43:54;8.60;;;7.05;;
17606;SDS011;8922;52.240;20.980;2022-10-16T14:46:23;8.63;;;6.53;;
17606;SDS011;8922;52.240;20.980;2022-10-16T14:48:59;7.22;;;6.53;;
17606;SDS011;8922;52.240;20.980;2022-10-16T14:51:29;9.95;;;6.80;;
17606;SDS011;8922;52.240;20.980;2022-10-16T14:53:56;9.73;;;7.13;;